createdAt,value
2023-04-09T00:00:11.551Z,73.10
2023-04-09T00:02:43.063Z,73.20
2023-04-09T00:05:12.198Z,73.20
2023-04-09T00:07:43.181Z,73.30
2023-04-09T00:10:13.324Z,73.30
2023-04-09T00:12:42.364Z,73.50
2023-04-09T00:15:20.659Z,73.60
2023-04-09T00:17:57.479Z,73.80
2023-04-09T00:20:26.633Z,74.00
2023-04-09T00:22:56.486Z,74.30
2023-04-09T00:25:25.672Z,74.50
2023-04-09T00:27:54.856Z,74.60
2023-04-09T00:30:25.632Z,74.90
2023-04-09T00:32:54.722Z,75.10
2023-04-09T00:35:23.993Z,75.30
2023-04-09T00:37:53.179Z,75.60
2023-04-09T00:40:22.312Z,75.90
2023-04-09T00:42:51.421Z,76.20
2023-04-09T00:45:20.559Z,76.60
2023-04-09T00:47:51.434Z,76.90
2023-04-09T00:50:20.658Z,77.20
2023-04-09T00:52:49.775Z,77.40
2023-04-09T00:55:20.130Z,77.70
2023-04-09T00:57:49.142Z,77.90
2023-04-09T01:00:18.336Z,78.00
2023-04-09T01:02:51.699Z,78.10
2023-04-09T01:05:21.224Z,79.20
2023-04-09T01:08:02.880Z,78.40
2023-04-09T01:10:37.561Z,78.60
2023-04-09T01:13:13.040Z,78.60
2023-04-09T01:15:49.180Z,78.70
2023-04-09T01:18:26.293Z,78.60
2023-04-09T01:21:00.517Z,78.60
2023-04-09T01:23:38.520Z,78.50
2023-04-09T01:26:16.139Z,78.50
2023-04-09T01:28:58.542Z,78.40
2023-04-09T01:31:32.409Z,78.40
2023-04-09T01:34:02.493Z,78.20
2023-04-09T01:36:33.194Z,78.20
2023-04-09T01:39:03.305Z,78.00
2023-04-09T01:41:34.102Z,77.80
2023-04-09T01:44:07.001Z,77.80
2023-04-09T01:46:36.540Z,77.70
2023-04-09T01:49:08.845Z,77.80
2023-04-09T01:51:38.857Z,77.70
2023-04-09T01:54:07.933Z,77.80
2023-04-09T01:56:44.068Z,77.90
2023-04-09T01:59:15.742Z,78.00
2023-04-09T02:01:48.159Z,78.00
2023-04-09T02:04:22.816Z,78.00
2023-04-09T02:06:59.494Z,78.00
2023-04-09T02:09:31.789Z,78.00
2023-04-09T02:12:04.415Z,78.00
2023-04-09T02:14:35.662Z,78.00
2023-04-09T02:17:04.867Z,78.20
2023-04-09T02:19:43.883Z,78.30
2023-04-09T02:22:13.778Z,78.50
2023-04-09T02:24:42.927Z,78.70
2023-04-09T02:27:12.119Z,78.80
2023-04-09T02:29:42.626Z,79.00
2023-04-09T02:32:11.791Z,79.00
2023-04-09T02:34:40.845Z,79.10
2023-04-09T02:37:09.932Z,79.10
2023-04-09T02:39:38.910Z,79.20
2023-04-09T02:42:08.408Z,79.30
2023-04-09T02:44:37.435Z,79.30
2023-04-09T02:47:08.346Z,79.30
2023-04-09T02:49:39.535Z,79.40
2023-04-09T02:52:08.533Z,79.40
2023-04-09T02:54:37.599Z,79.40
2023-04-09T02:57:06.792Z,79.50
2023-04-09T02:59:35.956Z,79.60
2023-04-09T03:02:05.078Z,79.60
2023-04-09T03:04:35.714Z,79.70
2023-04-09T03:07:04.710Z,79.70
2023-04-09T03:09:33.780Z,79.70
2023-04-09T03:12:03.158Z,79.70
2023-04-09T03:14:33.751Z,79.70
2023-04-09T03:17:04.618Z,79.80
2023-04-09T03:19:35.027Z,79.70
2023-04-09T03:22:04.561Z,79.70
2023-04-09T03:24:34.409Z,79.60
2023-04-09T03:27:06.603Z,79.60
2023-04-09T03:29:36.171Z,79.60
2023-04-09T03:32:05.515Z,79.70
2023-04-09T03:34:35.937Z,80.70
2023-04-09T03:37:05.007Z,79.90
2023-04-09T03:39:34.302Z,79.90
2023-04-09T03:42:03.361Z,80.10
2023-04-09T03:44:42.573Z,80.30
2023-04-09T03:47:15.643Z,80.40
2023-04-09T03:49:46.183Z,80.50
2023-04-09T03:52:25.989Z,80.60
2023-04-09T03:55:04.664Z,80.80
2023-04-09T03:57:33.659Z,81.00
2023-04-09T04:00:02.868Z,81.10
2023-04-09T04:02:41.348Z,81.00
2023-04-09T04:05:13.114Z,81.00
2023-04-09T04:07:47.580Z,81.10
2023-04-09T04:10:21.856Z,81.30
2023-04-09T04:12:50.901Z,81.40
2023-04-09T04:15:42.348Z,81.60
2023-04-09T04:18:13.277Z,81.70
2023-04-09T04:20:53.146Z,81.90
2023-04-09T04:23:22.206Z,82.00
2023-04-09T04:26:00.646Z,82.10
2023-04-09T04:28:34.663Z,82.20
2023-04-09T04:31:04.323Z,82.20
2023-04-09T04:33:35.056Z,82.30
2023-04-09T04:36:10.751Z,82.40
2023-04-09T04:38:44.135Z,83.40
2023-04-09T04:41:21.195Z,82.60
2023-04-09T04:43:57.577Z,82.70
2023-04-09T04:46:27.769Z,82.80
2023-04-09T04:48:56.792Z,82.90
2023-04-09T04:51:28.105Z,83.00
2023-04-09T04:54:14.579Z,83.10
2023-04-09T04:56:49.994Z,83.20
2023-04-09T04:59:31.674Z,83.30
2023-04-09T05:02:04.814Z,83.40
2023-04-09T05:04:40.495Z,83.60
2023-04-09T05:07:16.824Z,83.80
2023-04-09T05:09:53.394Z,84.00
2023-04-09T05:12:22.427Z,84.20
2023-04-09T05:14:53.849Z,84.30
2023-04-09T05:17:23.486Z,84.40
2023-04-09T05:19:53.221Z,84.50
2023-04-09T05:22:29.364Z,84.60
2023-04-09T05:24:58.369Z,84.70
2023-04-09T05:27:28.331Z,84.70
2023-04-09T05:30:02.514Z,84.90
2023-04-09T05:32:31.814Z,85.00
2023-04-09T05:35:01.164Z,85.20
2023-04-09T05:37:33.631Z,85.30
2023-04-09T05:40:03.039Z,85.50
2023-04-09T05:42:33.115Z,85.60
2023-04-09T05:45:10.292Z,85.70
2023-04-09T05:47:41.779Z,85.70
2023-04-09T05:50:20.639Z,85.80
2023-04-09T05:52:54.108Z,85.80
2023-04-09T05:55:24.750Z,86.00
2023-04-09T05:57:58.913Z,86.10
2023-04-09T06:00:28.951Z,86.20
2023-04-09T06:02:58.201Z,86.30
2023-04-09T06:05:29.649Z,86.40
2023-04-09T06:08:00.076Z,86.40
2023-04-09T06:10:29.594Z,86.50
2023-04-09T06:12:58.740Z,86.60
2023-04-09T06:15:30.497Z,86.50
2023-04-09T06:17:59.628Z,86.50
2023-04-09T06:20:28.750Z,86.50
2023-04-09T06:22:59.178Z,86.50
2023-04-09T06:25:28.190Z,86.60
2023-04-09T06:27:58.989Z,86.70
2023-04-09T06:30:28.072Z,86.60
2023-04-09T06:32:57.474Z,86.50
2023-04-09T06:35:26.848Z,86.40
2023-04-09T06:37:55.930Z,86.40
2023-04-09T06:40:26.415Z,86.40
2023-04-09T06:42:56.291Z,86.30
2023-04-09T06:45:31.587Z,86.30
2023-04-09T06:48:00.791Z,86.20
2023-04-09T06:50:32.849Z,86.10
2023-04-09T06:53:01.944Z,86.00
2023-04-09T06:55:33.621Z,85.90
2023-04-09T06:58:03.436Z,85.80
2023-04-09T07:00:32.841Z,85.90
2023-04-09T07:03:02.612Z,85.70
2023-04-09T07:05:33.355Z,85.70
2023-04-09T07:08:02.651Z,85.70
2023-04-09T07:10:33.476Z,85.60
2023-04-09T07:13:02.685Z,85.50
2023-04-09T07:15:31.806Z,85.50
2023-04-09T07:18:04.409Z,85.50
2023-04-09T07:20:34.482Z,85.40
2023-04-09T07:23:03.674Z,85.40
2023-04-09T07:25:34.458Z,85.50
2023-04-09T07:28:03.628Z,85.50
2023-04-09T07:30:33.022Z,85.50
2023-04-09T07:33:02.167Z,85.40
2023-04-09T07:35:32.167Z,85.40
2023-04-09T07:38:01.303Z,85.40
2023-04-09T07:40:30.653Z,85.40
2023-04-09T07:43:01.168Z,85.40
2023-04-09T07:45:30.248Z,85.40
2023-04-09T07:47:59.442Z,85.40
2023-04-09T07:50:28.571Z,85.30
2023-04-09T07:53:00.446Z,85.20
2023-04-09T07:55:29.584Z,85.10
2023-04-09T07:58:00.274Z,85.20
2023-04-09T08:00:29.544Z,85.30
2023-04-09T08:03:01.746Z,85.20
2023-04-09T08:05:30.945Z,85.20
2023-04-09T08:08:00.203Z,85.10
2023-04-09T08:10:29.422Z,85.20
2023-04-09T08:12:58.625Z,85.10
2023-04-09T08:15:29.230Z,85.00
2023-04-09T08:17:58.352Z,84.90
2023-04-09T08:20:27.961Z,84.60
2023-04-09T08:22:57.713Z,84.40
2023-04-09T08:25:27.264Z,84.30
2023-04-09T08:28:01.196Z,84.10
2023-04-09T08:30:34.222Z,83.90
2023-04-09T08:33:03.316Z,83.60
2023-04-09T08:35:35.234Z,83.40
2023-04-09T08:38:04.487Z,83.10
2023-04-09T08:40:36.198Z,82.90
2023-04-09T08:43:08.055Z,82.80
2023-04-09T08:45:41.350Z,82.70
2023-04-09T08:48:12.145Z,82.60
2023-04-09T08:50:41.729Z,82.40
2023-04-09T08:53:12.290Z,82.10
2023-04-09T08:55:41.531Z,82.00
2023-04-09T08:58:10.831Z,81.80
2023-04-09T09:00:41.260Z,81.80
2023-04-09T09:03:13.115Z,81.80
2023-04-09T09:05:43.605Z,81.70
2023-04-09T09:08:23.708Z,81.60
2023-04-09T09:10:52.836Z,81.40
2023-04-09T09:13:25.055Z,81.40
2023-04-09T09:16:12.666Z,81.20
2023-04-09T09:18:43.166Z,81.00
2023-04-09T09:21:12.913Z,81.00
2023-04-09T09:23:42.725Z,80.80
2023-04-09T09:26:16.470Z,80.80
2023-04-09T09:28:46.949Z,80.80
2023-04-09T09:31:19.093Z,80.70
2023-04-09T09:33:48.875Z,80.70
2023-04-09T09:36:31.541Z,80.70
2023-04-09T09:39:03.512Z,80.70
2023-04-09T09:41:33.006Z,80.70
2023-04-09T09:44:02.134Z,80.80
2023-04-09T09:46:35.441Z,80.80
2023-04-09T09:49:04.891Z,80.80
2023-04-09T09:51:37.081Z,80.90
2023-04-09T09:54:09.195Z,81.00
2023-04-09T09:56:43.836Z,81.00
2023-04-09T09:59:21.363Z,81.10
2023-04-09T10:01:58.162Z,81.10
2023-04-09T10:04:30.359Z,81.10
2023-04-09T10:07:01.233Z,81.20
2023-04-09T10:09:30.416Z,81.20
2023-04-09T10:12:02.457Z,81.20
2023-04-09T10:14:32.142Z,81.10
2023-04-09T10:17:04.094Z,81.20
2023-04-09T10:19:36.891Z,81.20
2023-04-09T10:22:11.150Z,81.20
2023-04-09T10:24:41.077Z,81.20
2023-04-09T10:27:16.224Z,81.30
2023-04-09T10:29:47.306Z,81.50
2023-04-09T10:32:26.806Z,81.50
2023-04-09T10:34:59.429Z,81.80
2023-04-09T10:37:30.019Z,81.90
2023-04-09T10:39:59.177Z,82.10
2023-04-09T10:42:36.565Z,82.30
2023-04-09T10:45:08.209Z,82.50
2023-04-09T10:47:40.473Z,82.80
2023-04-09T10:50:18.206Z,82.90
2023-04-09T10:52:47.930Z,84.00
2023-04-09T10:55:37.172Z,83.10
2023-04-09T10:58:08.515Z,83.30
2023-04-09T11:00:42.584Z,83.30
2023-04-09T11:03:24.366Z,83.30
2023-04-09T11:06:01.094Z,83.40
2023-04-09T11:08:31.695Z,83.60
2023-04-09T11:11:01.712Z,83.60
2023-04-09T11:13:32.422Z,83.70
2023-04-09T11:16:04.228Z,83.90
2023-04-09T11:18:44.081Z,84.00
2023-04-09T11:21:13.700Z,84.10
2023-04-09T11:23:43.325Z,84.20
2023-04-09T11:26:12.375Z,84.30
2023-04-09T11:28:44.116Z,84.40
2023-04-09T11:31:13.466Z,84.40
2023-04-09T11:33:47.478Z,84.20
2023-04-09T11:36:16.614Z,84.10
2023-04-09T11:38:45.822Z,84.10
2023-04-09T11:41:14.873Z,84.10
2023-04-09T11:43:44.039Z,84.00
2023-04-09T11:46:13.177Z,84.00
2023-04-09T11:48:43.720Z,84.00
2023-04-09T11:51:12.987Z,84.00
2023-04-09T11:53:42.172Z,83.90
2023-04-09T11:56:12.010Z,83.80
2023-04-09T11:58:47.067Z,83.90
2023-04-09T12:01:17.077Z,83.90
2023-04-09T12:03:54.444Z,83.80
2023-04-09T12:06:24.823Z,83.90
2023-04-09T12:08:54.693Z,83.80
2023-04-09T12:11:30.253Z,83.90
2023-04-09T12:14:03.528Z,84.00
2023-04-09T12:16:33.593Z,84.00
2023-04-09T12:19:04.616Z,84.90
2023-04-09T12:21:49.212Z,84.00
2023-04-09T12:24:20.014Z,84.10
2023-04-09T12:26:49.793Z,83.90
2023-04-09T12:29:20.650Z,84.00
2023-04-09T12:31:49.908Z,83.80
2023-04-09T12:34:20.556Z,83.70
2023-04-09T12:36:49.550Z,83.70
2023-04-09T12:39:18.630Z,83.60
2023-04-09T12:41:47.722Z,83.60
2023-04-09T12:44:16.786Z,83.70
2023-04-09T12:46:45.947Z,83.70
2023-04-09T12:49:15.004Z,83.70
2023-04-09T12:51:45.958Z,83.80
2023-04-09T12:54:15.280Z,83.80
2023-04-09T12:56:44.465Z,83.80
2023-04-09T12:59:13.623Z,83.70
2023-04-09T13:01:43.746Z,83.70
2023-04-09T13:04:13.252Z,83.60
2023-04-09T13:06:46.187Z,83.70
2023-04-09T13:09:15.423Z,83.70
2023-04-09T13:11:44.516Z,83.70
2023-04-09T13:14:14.516Z,83.80
2023-04-09T13:16:43.699Z,83.80
2023-04-09T13:19:12.845Z,83.90
2023-04-09T13:21:41.948Z,84.10
2023-04-09T13:24:12.475Z,84.10
2023-04-09T13:26:42.088Z,84.20
2023-04-09T13:29:11.320Z,84.30
2023-04-09T13:31:40.389Z,84.30
2023-04-09T13:34:09.511Z,84.40
2023-04-09T13:36:38.670Z,84.60
2023-04-09T13:39:07.777Z,84.80
2023-04-09T13:41:38.338Z,85.00
2023-04-09T13:44:07.533Z,85.20
2023-04-09T13:46:36.726Z,85.50
2023-04-09T13:49:05.900Z,85.70
2023-04-09T13:51:35.660Z,85.80
2023-04-09T13:54:06.046Z,86.00
2023-04-09T13:56:35.410Z,86.30
2023-04-09T13:59:06.509Z,86.30
2023-04-09T14:01:35.956Z,86.50
2023-04-09T14:04:05.349Z,86.60
2023-04-09T14:06:34.521Z,86.80
2023-04-09T14:09:03.622Z,87.00
2023-04-09T14:11:32.670Z,87.00
2023-04-09T14:14:01.653Z,87.10
2023-04-09T14:16:32.645Z,87.20
2023-04-09T14:19:01.704Z,87.30
2023-04-09T14:21:30.887Z,87.40
2023-04-09T14:24:00.031Z,87.40
2023-04-09T14:26:29.324Z,87.50
2023-04-09T14:28:58.337Z,87.60
2023-04-09T14:31:27.532Z,87.60
2023-04-09T14:33:58.262Z,87.70
2023-04-09T14:36:28.529Z,87.70
2023-04-09T14:38:58.165Z,87.80
2023-04-09T14:41:27.889Z,87.70
2023-04-09T14:43:57.063Z,87.70
2023-04-09T14:46:26.293Z,87.80
2023-04-09T14:48:55.473Z,87.80
2023-04-09T14:51:27.511Z,87.80
2023-04-09T14:53:56.784Z,87.70
2023-04-09T14:56:26.300Z,87.70
2023-04-09T14:58:55.435Z,87.70
2023-04-09T15:01:24.539Z,87.60
2023-04-09T15:03:54.016Z,87.60
2023-04-09T15:06:23.269Z,87.50
2023-04-09T15:08:54.103Z,87.50
2023-04-09T15:11:23.771Z,87.50
2023-04-09T15:13:53.210Z,87.50
2023-04-09T15:16:23.162Z,87.50
2023-04-09T15:18:52.869Z,87.50
2023-04-09T15:21:22.086Z,87.60
2023-04-09T15:23:53.905Z,87.70
2023-04-09T15:26:22.993Z,87.80
2023-04-09T15:28:53.712Z,87.80
2023-04-09T15:31:23.059Z,88.10
2023-04-09T15:33:52.166Z,88.20
2023-04-09T15:36:21.319Z,88.20
2023-04-09T15:38:50.571Z,88.30
2023-04-09T15:41:23.879Z,88.40
2023-04-09T15:43:55.310Z,88.30
2023-04-09T15:46:24.217Z,88.40
2023-04-09T15:48:53.538Z,88.50
2023-04-09T15:51:22.923Z,88.30
2023-04-09T15:53:51.958Z,88.50
2023-04-09T15:56:22.410Z,88.60
2023-04-09T15:58:51.656Z,88.80
2023-04-09T16:01:20.923Z,88.80
2023-04-09T16:03:52.398Z,89.00
2023-04-09T16:06:21.882Z,89.10
2023-04-09T16:08:51.359Z,89.20
2023-04-09T16:11:22.122Z,89.30
2023-04-09T16:13:51.265Z,89.40
2023-04-09T16:16:20.820Z,89.60
2023-04-09T16:18:49.877Z,89.70
2023-04-09T16:21:18.903Z,89.90
2023-04-09T16:23:47.924Z,90.00
2023-04-09T16:26:17.041Z,90.10
2023-04-09T16:28:47.518Z,90.20
2023-04-09T16:31:16.880Z,90.30
2023-04-09T16:33:45.916Z,90.30
2023-04-09T16:36:14.979Z,90.40
2023-04-09T16:38:44.100Z,90.50
2023-04-09T16:41:13.275Z,90.50
2023-04-09T16:43:42.384Z,90.50
2023-04-09T16:46:12.936Z,90.40
2023-04-09T16:48:42.085Z,90.40
2023-04-09T16:51:11.228Z,90.30
2023-04-09T16:53:40.262Z,90.30
2023-04-09T16:56:10.022Z,90.30
2023-04-09T16:58:39.144Z,90.20
2023-04-09T17:01:08.252Z,90.20
2023-04-09T17:03:38.822Z,90.20
2023-04-09T17:06:08.331Z,90.20
2023-04-09T17:08:37.331Z,90.10
2023-04-09T17:11:06.872Z,90.10
2023-04-09T17:13:36.632Z,90.10
2023-04-09T17:16:06.380Z,90.20
2023-04-09T17:18:35.768Z,90.20
2023-04-09T17:21:07.393Z,90.20
2023-04-09T17:23:37.944Z,90.20
2023-04-09T17:26:07.371Z,90.10
2023-04-09T17:28:36.374Z,90.10
2023-04-09T17:31:12.567Z,90.10
2023-04-09T17:33:41.729Z,90.10
2023-04-09T17:36:12.256Z,90.10
2023-04-09T17:38:41.292Z,90.00
2023-04-09T17:41:10.443Z,90.00
2023-04-09T17:43:39.438Z,90.00
2023-04-09T17:46:09.050Z,90.10
2023-04-09T17:48:38.344Z,90.10
2023-04-09T17:51:08.302Z,90.10
2023-04-09T17:53:38.743Z,90.20
2023-04-09T17:56:09.099Z,90.30
2023-04-09T17:58:38.160Z,90.30
2023-04-09T18:01:08.998Z,90.40
2023-04-09T18:03:38.339Z,90.50
2023-04-09T18:06:08.302Z,90.50
2023-04-09T18:08:38.919Z,90.60
2023-04-09T18:11:13.125Z,90.70
2023-04-09T18:13:42.777Z,90.70
2023-04-09T18:16:12.454Z,90.80
2023-04-09T18:18:41.795Z,90.80
2023-04-09T18:21:10.871Z,90.80
2023-04-09T18:23:41.315Z,90.80
2023-04-09T18:26:11.068Z,90.80
2023-04-09T18:28:40.326Z,90.80
2023-04-09T18:31:09.558Z,90.80
2023-04-09T18:33:38.668Z,90.70
2023-04-09T18:36:08.498Z,90.70
2023-04-09T18:38:37.917Z,90.70
2023-04-09T18:41:11.150Z,90.60
2023-04-09T18:43:40.353Z,90.60
2023-04-09T18:46:09.506Z,90.40
2023-04-09T18:48:38.754Z,90.30
2023-04-09T18:51:08.018Z,90.20
2023-04-09T18:53:37.300Z,90.10
2023-04-09T18:56:08.486Z,90.00
2023-04-09T18:58:37.777Z,89.80
2023-04-09T19:01:13.421Z,89.50
2023-04-09T19:03:43.390Z,89.40
2023-04-09T19:06:14.757Z,89.10
2023-04-09T19:08:43.857Z,88.90
2023-04-09T19:11:15.034Z,88.60
2023-04-09T19:13:44.143Z,88.50
2023-04-09T19:16:13.413Z,88.40
2023-04-09T19:18:42.498Z,88.20
2023-04-09T19:21:11.798Z,88.10
2023-04-09T19:23:41.332Z,88.00
2023-04-09T19:26:11.093Z,87.90
2023-04-09T19:28:41.544Z,87.90
2023-04-09T19:31:12.754Z,87.90
2023-04-09T19:33:42.072Z,87.80
2023-04-09T19:36:12.994Z,87.70
2023-04-09T19:38:42.204Z,87.70
2023-04-09T19:41:11.240Z,87.70
2023-04-09T19:43:42.425Z,87.60
2023-04-09T19:46:11.466Z,87.60
2023-04-09T19:48:40.959Z,87.70
2023-04-09T19:51:16.464Z,87.80
2023-04-09T19:53:47.317Z,87.90
2023-04-09T19:56:16.645Z,88.00
2023-04-09T19:58:47.281Z,88.10
2023-04-09T20:01:16.972Z,88.20
2023-04-09T20:03:47.115Z,88.30
2023-04-09T20:06:16.406Z,88.30
2023-04-09T20:08:45.362Z,88.30
2023-04-09T20:11:18.047Z,88.40
2023-04-09T20:13:48.961Z,88.50
2023-04-09T20:16:18.065Z,88.50
2023-04-09T20:18:47.670Z,88.50
2023-04-09T20:21:16.722Z,88.50
2023-04-09T20:23:46.353Z,88.50
2023-04-09T20:26:15.459Z,88.40
2023-04-09T20:28:44.559Z,88.40
2023-04-09T20:31:15.039Z,88.40
2023-04-09T20:33:44.067Z,88.40
2023-04-09T20:36:16.939Z,88.30
2023-04-09T20:38:46.358Z,88.30
2023-04-09T20:41:15.813Z,88.30
2023-04-09T20:43:45.031Z,88.30
2023-04-09T20:46:15.550Z,88.40
2023-04-09T20:48:44.873Z,88.50
2023-04-09T20:51:15.026Z,88.40
2023-04-09T20:53:44.107Z,88.50
2023-04-09T20:56:13.376Z,88.60
2023-04-09T20:58:42.397Z,88.70
2023-04-09T21:01:11.542Z,88.70
2023-04-09T21:03:42.321Z,88.70
2023-04-09T21:06:12.063Z,88.60
2023-04-09T21:08:42.818Z,89.40
2023-04-09T21:11:12.100Z,88.50
2023-04-09T21:13:53.644Z,88.40
2023-04-09T21:16:26.158Z,88.40
2023-04-09T21:18:56.936Z,88.40
2023-04-09T21:21:27.535Z,88.50
2023-04-09T21:23:56.674Z,88.70
2023-04-09T21:26:25.719Z,88.90
2023-04-09T21:28:55.422Z,89.10
2023-04-09T21:31:25.036Z,89.30
2023-04-09T21:33:54.194Z,89.60
2023-04-09T21:36:27.011Z,89.90
2023-04-09T21:38:56.015Z,90.10
2023-04-09T21:41:25.194Z,90.30
2023-04-09T21:43:54.224Z,90.40
2023-04-09T21:46:23.367Z,90.50
2023-04-09T21:48:52.718Z,90.60
2023-04-09T21:51:21.993Z,90.70
2023-04-09T21:53:52.733Z,90.80
2023-04-09T21:56:21.767Z,90.90
2023-04-09T21:58:51.005Z,91.00
2023-04-09T22:01:28.691Z,91.10
2023-04-09T22:03:59.831Z,91.20
2023-04-09T22:06:29.794Z,91.30
2023-04-09T22:09:00.626Z,91.30
2023-04-09T22:11:29.975Z,91.40
2023-04-09T22:13:59.489Z,91.50
2023-04-09T22:16:28.795Z,91.50
2023-04-09T22:18:58.247Z,91.50
2023-04-09T22:21:27.767Z,91.60
2023-04-09T22:23:56.902Z,91.70
2023-04-09T22:26:28.236Z,91.70
2023-04-09T22:28:57.336Z,91.80
2023-04-09T22:31:28.457Z,91.80
2023-04-09T22:33:58.701Z,91.90
2023-04-09T22:36:29.254Z,91.90
2023-04-09T22:38:58.255Z,92.00
2023-04-09T22:41:28.729Z,92.00
2023-04-09T22:43:57.895Z,92.10
2023-04-09T22:46:27.008Z,92.20
2023-04-09T22:49:04.237Z,92.20
2023-04-09T22:51:35.000Z,92.30
2023-04-09T22:54:04.247Z,92.30
2023-04-09T22:56:34.726Z,92.30
2023-04-09T22:59:04.028Z,92.40
2023-04-09T23:01:33.623Z,92.40
2023-04-09T23:04:02.791Z,92.40
2023-04-09T23:06:32.098Z,92.40
2023-04-09T23:09:01.211Z,92.40
2023-04-09T23:11:30.628Z,92.40
2023-04-09T23:14:01.060Z,92.40
2023-04-09T23:16:30.215Z,92.50
2023-04-09T23:18:59.318Z,92.50
2023-04-09T23:21:28.392Z,92.50
2023-04-09T23:23:57.400Z,92.50
2023-04-09T23:26:26.403Z,92.50
2023-04-09T23:28:55.826Z,92.50
2023-04-09T23:31:26.328Z,92.50
2023-04-09T23:33:55.681Z,92.60
2023-04-09T23:36:24.977Z,92.60
2023-04-09T23:38:54.084Z,92.60
2023-04-09T23:41:23.185Z,92.60
2023-04-09T23:43:52.606Z,92.50
2023-04-09T23:46:22.882Z,92.60
2023-04-09T23:48:53.331Z,92.60
2023-04-09T23:51:22.691Z,92.50
2023-04-09T23:53:51.865Z,92.40
2023-04-09T23:56:21.174Z,92.20
2023-04-09T23:58:50.545Z,92.10
